sensor_id;sensor_type;location;lat;lon;timestamp;P1;durP1;ratioP1;P2;durP2;ratioP2
51082;SDS011;37131;42.694;23.350;2024-01-11T00:02:07;29.45;;;11.18;;
51082;SDS011;37131;42.694;23.350;2024-01-11T00:04:33;14.57;;;6.95;;
51082;SDS011;37131;42.694;23.350;2024-01-11T00:06:58;22.17;;;10.05;;
51082;SDS011;37131;42.694;23.350;2024-01-11T00:09:23;21.02;;;10.20;;
51082;SDS011;37131;42.694;23.350;2024-01-11T00:11:49;13.80;;;8.43;;
51082;SDS011;37131;42.694;23.350;2024-01-11T00:14:14;20.25;;;8.38;;
51082;SDS011;37131;42.694;23.350;2024-01-11T00:16:40;26.33;;;10.02;;
51082;SDS011;37131;42.694;23.350;2024-01-11T00:19:06;19.15;;;11.05;;
51082;SDS011;37131;42.694;23.350;2024-01-11T00:21:31;24.02;;;6.80;;
51082;SDS011;37131;42.694;23.350;2024-01-11T00:23:57;24.33;;;10.52;;
51082;SDS011;37131;42.694;23.350;2024-01-11T00:26:22;17.15;;;6.90;;
51082;SDS011;37131;42.694;23.350;2024-01-11T00:28:47;14.18;;;5.70;;
51082;SDS011;37131;42.694;23.350;2024-01-11T00:31:13;10.95;;;5.25;;
51082;SDS011;37131;42.694;23.350;2024-01-11T00:33:38;15.40;;;6.72;;
51082;SDS011;37131;42.694;23.350;2024-01-11T00:36:04;21.73;;;7.68;;
51082;SDS011;37131;42.694;23.350;2024-01-11T00:38:29;12.07;;;7.03;;
51082;SDS011;37131;42.694;23.350;2024-01-11T00:40:55;21.60;;;8.73;;
51082;SDS011;37131;42.694;23.350;2024-01-11T00:43:20;18.73;;;8.43;;
51082;SDS011;37131;42.694;23.350;2024-01-11T00:45:46;19.33;;;7.82;;
51082;SDS011;37131;42.694;23.350;2024-01-11T00:48:11;20.80;;;7.68;;
51082;SDS011;37131;42.694;23.350;2024-01-11T00:50:37;19.75;;;9.50;;
51082;SDS011;37131;42.694;23.350;2024-01-11T00:53:02;27.77;;;8.90;;
51082;SDS011;37131;42.694;23.350;2024-01-11T00:55:28;19.77;;;8.75;;
51082;SDS011;37131;42.694;23.350;2024-01-11T00:57:54;21.48;;;8.98;;
51082;SDS011;37131;42.694;23.350;2024-01-11T01:00:19;18.77;;;8.20;;
51082;SDS011;37131;42.694;23.350;2024-01-11T01:02:45;23.88;;;10.65;;
51082;SDS011;37131;42.694;23.350;2024-01-11T01:05:10;25.75;;;10.30;;
51082;SDS011;37131;42.694;23.350;2024-01-11T01:07:36;23.75;;;9.50;;
51082;SDS011;37131;42.694;23.350;2024-01-11T01:10:02;24.38;;;10.48;;
51082;SDS011;37131;42.694;23.350;2024-01-11T01:12:27;24.23;;;12.45;;
51082;SDS011;37131;42.694;23.350;2024-01-11T01:14:54;19.92;;;8.85;;
51082;SDS011;37131;42.694;23.350;2024-01-11T01:17:20;35.53;;;13.05;;
51082;SDS011;37131;42.694;23.350;2024-01-11T01:19:47;26.20;;;9.60;;
51082;SDS011;37131;42.694;23.350;2024-01-11T01:22:12;23.05;;;8.90;;
51082;SDS011;37131;42.694;23.350;2024-01-11T01:24:37;14.38;;;6.95;;
51082;SDS011;37131;42.694;23.350;2024-01-11T01:27:03;14.02;;;5.00;;
51082;SDS011;37131;42.694;23.350;2024-01-11T01:29:28;17.08;;;7.07;;
51082;SDS011;37131;42.694;23.350;2024-01-11T01:31:54;24.77;;;9.23;;
51082;SDS011;37131;42.694;23.350;2024-01-11T01:34:19;21.02;;;9.32;;
51082;SDS011;37131;42.694;23.350;2024-01-11T01:36:45;30.95;;;10.55;;
51082;SDS011;37131;42.694;23.350;2024-01-11T01:39:10;20.17;;;8.43;;
51082;SDS011;37131;42.694;23.350;2024-01-11T01:41:36;22.08;;;9.80;;
51082;SDS011;37131;42.694;23.350;2024-01-11T01:44:01;20.15;;;8.70;;
51082;SDS011;37131;42.694;23.350;2024-01-11T01:46:27;21.67;;;8.68;;
51082;SDS011;37131;42.694;23.350;2024-01-11T01:48:53;12.80;;;6.38;;
51082;SDS011;37131;42.694;23.350;2024-01-11T01:51:20;18.25;;;8.13;;
51082;SDS011;37131;42.694;23.350;2024-01-11T01:53:47;12.77;;;5.75;;
51082;SDS011;37131;42.694;23.350;2024-01-11T01:56:15;26.45;;;6.05;;
51082;SDS011;37131;42.694;23.350;2024-01-11T01:58:42;4.95;;;3.03;;
51082;SDS011;37131;42.694;23.350;2024-01-11T02:01:08;10.93;;;5.68;;
51082;SDS011;37131;42.694;23.350;2024-01-11T02:03:33;18.92;;;7.78;;
51082;SDS011;37131;42.694;23.350;2024-01-11T02:06:01;18.65;;;7.45;;
51082;SDS011;37131;42.694;23.350;2024-01-11T02:08:29;13.32;;;5.75;;
51082;SDS011;37131;42.694;23.350;2024-01-11T02:10:56;4.35;;;2.00;;
51082;SDS011;37131;42.694;23.350;2024-01-11T02:15:49;1.08;;;0.47;;
51082;SDS011;37131;42.694;23.350;2024-01-11T02:18:15;5.72;;;2.30;;
51082;SDS011;37131;42.694;23.350;2024-01-11T02:20:40;7.70;;;3.00;;
51082;SDS011;37131;42.694;23.350;2024-01-11T02:23:06;8.13;;;3.72;;
51082;SDS011;37131;42.694;23.350;2024-01-11T02:25:35;9.50;;;4.78;;
51082;SDS011;37131;42.694;23.350;2024-01-11T02:28:00;12.38;;;2.97;;
51082;SDS011;37131;42.694;23.350;2024-01-11T02:30:26;6.60;;;3.53;;
51082;SDS011;37131;42.694;23.350;2024-01-11T02:32:51;8.23;;;3.30;;
51082;SDS011;37131;42.694;23.350;2024-01-11T02:35:17;12.45;;;5.10;;
51082;SDS011;37131;42.694;23.350;2024-01-11T02:37:43;7.43;;;3.22;;
51082;SDS011;37131;42.694;23.350;2024-01-11T02:40:10;8.25;;;4.28;;
51082;SDS011;37131;42.694;23.350;2024-01-11T02:42:38;15.13;;;3.88;;
51082;SDS011;37131;42.694;23.350;2024-01-11T02:45:03;11.57;;;4.20;;
51082;SDS011;37131;42.694;23.350;2024-01-11T02:47:29;9.25;;;3.55;;
51082;SDS011;37131;42.694;23.350;2024-01-11T02:49:55;14.02;;;4.88;;
51082;SDS011;37131;42.694;23.350;2024-01-11T02:52:22;11.02;;;3.80;;
51082;SDS011;37131;42.694;23.350;2024-01-11T02:54:47;13.23;;;5.38;;
51082;SDS011;37131;42.694;23.350;2024-01-11T02:57:13;10.80;;;4.07;;
51082;SDS011;37131;42.694;23.350;2024-01-11T02:59:39;10.38;;;4.63;;
51082;SDS011;37131;42.694;23.350;2024-01-11T03:02:05;12.40;;;4.70;;
51082;SDS011;37131;42.694;23.350;2024-01-11T03:04:31;15.05;;;4.57;;
51082;SDS011;37131;42.694;23.350;2024-01-11T03:06:56;14.90;;;5.13;;
51082;SDS011;37131;42.694;23.350;2024-01-11T03:09:21;18.38;;;7.90;;
51082;SDS011;37131;42.694;23.350;2024-01-11T03:11:47;18.35;;;7.60;;
51082;SDS011;37131;42.694;23.350;2024-01-11T03:14:12;33.35;;;8.45;;
51082;SDS011;37131;42.694;23.350;2024-01-11T03:16:37;23.35;;;10.93;;
51082;SDS011;37131;42.694;23.350;2024-01-11T03:19:04;14.48;;;7.07;;
51082;SDS011;37131;42.694;23.350;2024-01-11T03:21:30;19.80;;;7.57;;
51082;SDS011;37131;42.694;23.350;2024-01-11T03:23:55;18.33;;;6.00;;
51082;SDS011;37131;42.694;23.350;2024-01-11T03:26:21;15.65;;;5.72;;
51082;SDS011;37131;42.694;23.350;2024-01-11T03:28:46;12.98;;;7.18;;
51082;SDS011;37131;42.694;23.350;2024-01-11T03:31:11;8.63;;;4.05;;
51082;SDS011;37131;42.694;23.350;2024-01-11T03:33:37;14.07;;;6.03;;
51082;SDS011;37131;42.694;23.350;2024-01-11T03:36:06;14.70;;;8.82;;
51082;SDS011;37131;42.694;23.350;2024-01-11T03:38:35;10.57;;;6.25;;
51082;SDS011;37131;42.694;23.350;2024-01-11T03:41:01;18.13;;;9.93;;
51082;SDS011;37131;42.694;23.350;2024-01-11T03:43:26;14.32;;;8.07;;
51082;SDS011;37131;42.694;23.350;2024-01-11T03:45:52;19.80;;;9.15;;
51082;SDS011;37131;42.694;23.350;2024-01-11T03:48:17;22.83;;;9.60;;
51082;SDS011;37131;42.694;23.350;2024-01-11T03:50:43;21.60;;;9.50;;
51082;SDS011;37131;42.694;23.350;2024-01-11T03:53:08;10.52;;;6.32;;
51082;SDS011;37131;42.694;23.350;2024-01-11T03:55:33;20.15;;;9.40;;
51082;SDS011;37131;42.694;23.350;2024-01-11T03:57:59;20.10;;;7.60;;
51082;SDS011;37131;42.694;23.350;2024-01-11T04:00:24;23.38;;;8.77;;
51082;SDS011;37131;42.694;23.350;2024-01-11T04:02:50;24.55;;;9.43;;
51082;SDS011;37131;42.694;23.350;2024-01-11T04:05:15;31.15;;;12.95;;
51082;SDS011;37131;42.694;23.350;2024-01-11T04:07:41;18.02;;;7.22;;
51082;SDS011;37131;42.694;23.350;2024-01-11T04:10:06;25.88;;;8.20;;
51082;SDS011;37131;42.694;23.350;2024-01-11T04:12:34;14.45;;;8.38;;
51082;SDS011;37131;42.694;23.350;2024-01-11T04:15:01;26.02;;;9.35;;
51082;SDS011;37131;42.694;23.350;2024-01-11T04:17:26;18.45;;;7.55;;
51082;SDS011;37131;42.694;23.350;2024-01-11T04:19:52;30.58;;;8.13;;
51082;SDS011;37131;42.694;23.350;2024-01-11T04:22:17;17.58;;;6.95;;
51082;SDS011;37131;42.694;23.350;2024-01-11T04:24:43;19.65;;;9.93;;
51082;SDS011;37131;42.694;23.350;2024-01-11T04:27:08;12.10;;;7.13;;
51082;SDS011;37131;42.694;23.350;2024-01-11T04:29:34;25.42;;;7.72;;
51082;SDS011;37131;42.694;23.350;2024-01-11T04:31:59;10.00;;;4.72;;
51082;SDS011;37131;42.694;23.350;2024-01-11T04:34:25;3.97;;;2.85;;
51082;SDS011;37131;42.694;23.350;2024-01-11T04:36:50;28.25;;;10.73;;
51082;SDS011;37131;42.694;23.350;2024-01-11T04:39:15;23.08;;;9.07;;
51082;SDS011;37131;42.694;23.350;2024-01-11T04:41:41;11.05;;;3.90;;
51082;SDS011;37131;42.694;23.350;2024-01-11T04:44:06;26.75;;;11.88;;
51082;SDS011;37131;42.694;23.350;2024-01-11T04:46:32;16.05;;;8.80;;
51082;SDS011;37131;42.694;23.350;2024-01-11T04:48:57;25.23;;;10.13;;
51082;SDS011;37131;42.694;23.350;2024-01-11T04:51:22;7.70;;;4.03;;
51082;SDS011;37131;42.694;23.350;2024-01-11T04:53:48;27.30;;;12.70;;
51082;SDS011;37131;42.694;23.350;2024-01-11T04:56:15;34.58;;;13.52;;
51082;SDS011;37131;42.694;23.350;2024-01-11T04:58:41;17.15;;;7.13;;
51082;SDS011;37131;42.694;23.350;2024-01-11T05:03:39;22.35;;;9.73;;
51082;SDS011;37131;42.694;23.350;2024-01-11T05:06:05;18.17;;;9.90;;
51082;SDS011;37131;42.694;23.350;2024-01-11T05:08:31;29.52;;;12.20;;
51082;SDS011;37131;42.694;23.350;2024-01-11T05:10:56;37.20;;;14.38;;
51082;SDS011;37131;42.694;23.350;2024-01-11T05:13:22;19.48;;;8.35;;
51082;SDS011;37131;42.694;23.350;2024-01-11T05:15:47;22.38;;;9.52;;
51082;SDS011;37131;42.694;23.350;2024-01-11T05:18:13;37.03;;;13.85;;
51082;SDS011;37131;42.694;23.350;2024-01-11T05:20:38;28.15;;;13.63;;
51082;SDS011;37131;42.694;23.350;2024-01-11T05:23:04;27.20;;;13.98;;
51082;SDS011;37131;42.694;23.350;2024-01-11T05:25:30;27.05;;;12.50;;
51082;SDS011;37131;42.694;23.350;2024-01-11T05:27:59;21.45;;;11.27;;
51082;SDS011;37131;42.694;23.350;2024-01-11T05:30:24;16.90;;;10.23;;
51082;SDS011;37131;42.694;23.350;2024-01-11T05:32:50;28.45;;;13.45;;
51082;SDS011;37131;42.694;23.350;2024-01-11T05:35:15;27.13;;;13.80;;
51082;SDS011;37131;42.694;23.350;2024-01-11T05:37:41;6.00;;;4.93;;
51082;SDS011;37131;42.694;23.350;2024-01-11T05:40:06;29.80;;;12.65;;
51082;SDS011;37131;42.694;23.350;2024-01-11T05:42:33;20.02;;;9.68;;
51082;SDS011;37131;42.694;23.350;2024-01-11T05:44:58;22.05;;;10.43;;
51082;SDS011;37131;42.694;23.350;2024-01-11T05:47:23;21.27;;;9.98;;
51082;SDS011;37131;42.694;23.350;2024-01-11T05:49:49;25.67;;;11.32;;
51082;SDS011;37131;42.694;23.350;2024-01-11T05:52:15;13.60;;;8.30;;
51082;SDS011;37131;42.694;23.350;2024-01-11T05:54:40;18.35;;;7.40;;
51082;SDS011;37131;42.694;23.350;2024-01-11T05:57:06;23.80;;;10.25;;
51082;SDS011;37131;42.694;23.350;2024-01-11T05:59:32;22.00;;;9.90;;
51082;SDS011;37131;42.694;23.350;2024-01-11T06:01:58;16.48;;;7.18;;
51082;SDS011;37131;42.694;23.350;2024-01-11T06:04:25;19.80;;;7.95;;
51082;SDS011;37131;42.694;23.350;2024-01-11T06:06:51;25.92;;;8.90;;
51082;SDS011;37131;42.694;23.350;2024-01-11T06:09:17;14.93;;;8.68;;
51082;SDS011;37131;42.694;23.350;2024-01-11T06:11:42;28.50;;;9.75;;
51082;SDS011;37131;42.694;23.350;2024-01-11T06:14:08;19.90;;;10.68;;
51082;SDS011;37131;42.694;23.350;2024-01-11T06:16:34;20.58;;;9.43;;
51082;SDS011;37131;42.694;23.350;2024-01-11T06:18:59;22.27;;;11.63;;
51082;SDS011;37131;42.694;23.350;2024-01-11T06:21:25;18.70;;;9.73;;
51082;SDS011;37131;42.694;23.350;2024-01-11T06:23:50;34.88;;;13.70;;
51082;SDS011;37131;42.694;23.350;2024-01-11T06:26:16;18.52;;;8.48;;
51082;SDS011;37131;42.694;23.350;2024-01-11T06:28:42;19.05;;;8.82;;
51082;SDS011;37131;42.694;23.350;2024-01-11T06:31:09;18.15;;;8.35;;
51082;SDS011;37131;42.694;23.350;2024-01-11T06:33:34;22.95;;;9.80;;
51082;SDS011;37131;42.694;23.350;2024-01-11T06:36:02;14.80;;;7.40;;
51082;SDS011;37131;42.694;23.350;2024-01-11T06:38:32;24.13;;;9.55;;
51082;SDS011;37131;42.694;23.350;2024-01-11T06:40:57;10.27;;;5.57;;
51082;SDS011;37131;42.694;23.350;2024-01-11T06:43:23;13.50;;;6.38;;
51082;SDS011;37131;42.694;23.350;2024-01-11T06:45:49;14.45;;;6.55;;
51082;SDS011;37131;42.694;23.350;2024-01-11T06:48:14;16.73;;;8.95;;
51082;SDS011;37131;42.694;23.350;2024-01-11T06:50:39;14.82;;;7.22;;
51082;SDS011;37131;42.694;23.350;2024-01-11T06:53:05;9.63;;;4.38;;
51082;SDS011;37131;42.694;23.350;2024-01-11T06:55:30;13.23;;;8.38;;
51082;SDS011;37131;42.694;23.350;2024-01-11T06:57:56;10.75;;;5.18;;
51082;SDS011;37131;42.694;23.350;2024-01-11T07:00:22;27.73;;;11.18;;
51082;SDS011;37131;42.694;23.350;2024-01-11T07:02:48;24.50;;;10.57;;
51082;SDS011;37131;42.694;23.350;2024-01-11T07:05:13;18.58;;;9.63;;
51082;SDS011;37131;42.694;23.350;2024-01-11T07:07:39;10.52;;;5.68;;
51082;SDS011;37131;42.694;23.350;2024-01-11T07:10:04;19.08;;;7.53;;
51082;SDS011;37131;42.694;23.350;2024-01-11T07:12:30;18.38;;;6.72;;
51082;SDS011;37131;42.694;23.350;2024-01-11T07:14:56;18.42;;;8.88;;
51082;SDS011;37131;42.694;23.350;2024-01-11T07:17:22;11.65;;;6.35;;
51082;SDS011;37131;42.694;23.350;2024-01-11T07:19:48;27.67;;;14.30;;
51082;SDS011;37131;42.694;23.350;2024-01-11T07:22:14;5.85;;;5.35;;
51082;SDS011;37131;42.694;23.350;2024-01-11T07:24:39;33.38;;;15.07;;
51082;SDS011;37131;42.694;23.350;2024-01-11T07:27:05;28.70;;;13.90;;
51082;SDS011;37131;42.694;23.350;2024-01-11T07:29:31;25.58;;;10.60;;
51082;SDS011;37131;42.694;23.350;2024-01-11T07:31:56;24.63;;;13.15;;
51082;SDS011;37131;42.694;23.350;2024-01-11T07:34:22;15.68;;;10.27;;
51082;SDS011;37131;42.694;23.350;2024-01-11T07:36:49;7.38;;;5.05;;
51082;SDS011;37131;42.694;23.350;2024-01-11T07:39:14;32.35;;;14.50;;
51082;SDS011;37131;42.694;23.350;2024-01-11T07:41:40;29.67;;;13.80;;
51082;SDS011;37131;42.694;23.350;2024-01-11T07:44:06;13.10;;;7.20;;
51082;SDS011;37131;42.694;23.350;2024-01-11T07:46:31;22.05;;;10.63;;
51082;SDS011;37131;42.694;23.350;2024-01-11T07:48:56;16.20;;;9.23;;
51082;SDS011;37131;42.694;23.350;2024-01-11T07:51:24;28.02;;;14.77;;
51082;SDS011;37131;42.694;23.350;2024-01-11T07:53:49;29.52;;;15.88;;
51082;SDS011;37131;42.694;23.350;2024-01-11T07:56:15;29.92;;;14.13;;
51082;SDS011;37131;42.694;23.350;2024-01-11T07:58:40;14.35;;;6.10;;
51082;SDS011;37131;42.694;23.350;2024-01-11T08:01:06;12.23;;;9.48;;
51082;SDS011;37131;42.694;23.350;2024-01-11T08:03:32;9.25;;;7.05;;
51082;SDS011;37131;42.694;23.350;2024-01-11T08:05:59;31.52;;;13.20;;
51082;SDS011;37131;42.694;23.350;2024-01-11T08:08:25;30.83;;;12.82;;
51082;SDS011;37131;42.694;23.350;2024-01-11T08:10:51;22.42;;;11.65;;
51082;SDS011;37131;42.694;23.350;2024-01-11T08:13:17;32.55;;;11.40;;
51082;SDS011;37131;42.694;23.350;2024-01-11T08:15:43;24.85;;;11.63;;
51082;SDS011;37131;42.694;23.350;2024-01-11T08:18:08;35.58;;;18.13;;
51082;SDS011;37131;42.694;23.350;2024-01-11T08:20:34;15.68;;;8.63;;
51082;SDS011;37131;42.694;23.350;2024-01-11T08:23:00;35.58;;;14.38;;
51082;SDS011;37131;42.694;23.350;2024-01-11T08:25:25;15.82;;;6.80;;
51082;SDS011;37131;42.694;23.350;2024-01-11T08:27:51;36.08;;;17.23;;
51082;SDS011;37131;42.694;23.350;2024-01-11T08:30:16;26.25;;;13.55;;
51082;SDS011;37131;42.694;23.350;2024-01-11T08:32:42;38.78;;;19.23;;
51082;SDS011;37131;42.694;23.350;2024-01-11T08:35:11;22.58;;;13.50;;
51082;SDS011;37131;42.694;23.350;2024-01-11T08:37:36;16.67;;;8.25;;
51082;SDS011;37131;42.694;23.350;2024-01-11T08:40:02;48.83;;;21.77;;
51082;SDS011;37131;42.694;23.350;2024-01-11T08:42:30;42.03;;;19.02;;
51082;SDS011;37131;42.694;23.350;2024-01-11T08:44:56;30.00;;;12.80;;
51082;SDS011;37131;42.694;23.350;2024-01-11T08:47:21;31.83;;;14.95;;
51082;SDS011;37131;42.694;23.350;2024-01-11T08:49:47;34.17;;;17.17;;
51082;SDS011;37131;42.694;23.350;2024-01-11T08:52:12;41.05;;;16.60;;
51082;SDS011;37131;42.694;23.350;2024-01-11T08:54:37;31.85;;;15.13;;
51082;SDS011;37131;42.694;23.350;2024-01-11T08:57:03;31.88;;;15.82;;
51082;SDS011;37131;42.694;23.350;2024-01-11T08:59:29;31.13;;;15.02;;
51082;SDS011;37131;42.694;23.350;2024-01-11T09:01:55;35.53;;;17.02;;
51082;SDS011;37131;42.694;23.350;2024-01-11T09:04:20;31.77;;;14.90;;
51082;SDS011;37131;42.694;23.350;2024-01-11T09:06:46;16.40;;;9.82;;
51082;SDS011;37131;42.694;23.350;2024-01-11T09:09:11;31.05;;;15.63;;
51082;SDS011;37131;42.694;23.350;2024-01-11T09:11:39;30.10;;;15.07;;
51082;SDS011;37131;42.694;23.350;2024-01-11T09:14:08;31.45;;;12.88;;
51082;SDS011;37131;42.694;23.350;2024-01-11T09:16:37;32.03;;;14.57;;
51082;SDS011;37131;42.694;23.350;2024-01-11T09:19:04;28.85;;;16.48;;
51082;SDS011;37131;42.694;23.350;2024-01-11T09:21:30;19.38;;;9.50;;
51082;SDS011;37131;42.694;23.350;2024-01-11T09:23:55;26.08;;;12.63;;
51082;SDS011;37131;42.694;23.350;2024-01-11T09:26:21;29.10;;;13.30;;
51082;SDS011;37131;42.694;23.350;2024-01-11T09:28:47;25.48;;;13.50;;
51082;SDS011;37131;42.694;23.350;2024-01-11T09:31:13;25.83;;;12.70;;
51082;SDS011;37131;42.694;23.350;2024-01-11T09:33:39;28.70;;;12.90;;
51082;SDS011;37131;42.694;23.350;2024-01-11T09:36:04;22.75;;;13.85;;
51082;SDS011;37131;42.694;23.350;2024-01-11T09:38:30;21.52;;;11.48;;
51082;SDS011;37131;42.694;23.350;2024-01-11T09:40:59;19.02;;;9.40;;
51082;SDS011;37131;42.694;23.350;2024-01-11T09:43:34;26.33;;;14.15;;
51082;SDS011;37131;42.694;23.350;2024-01-11T09:46:03;34.67;;;14.93;;
51082;SDS011;37131;42.694;23.350;2024-01-11T09:48:35;27.88;;;12.98;;
51082;SDS011;37131;42.694;23.350;2024-01-11T09:51:02;30.42;;;14.43;;
51082;SDS011;37131;42.694;23.350;2024-01-11T09:53:31;19.10;;;10.98;;
51082;SDS011;37131;42.694;23.350;2024-01-11T09:55:58;15.90;;;9.68;;
51082;SDS011;37131;42.694;23.350;2024-01-11T09:58:24;36.03;;;16.00;;
51082;SDS011;37131;42.694;23.350;2024-01-11T10:00:52;41.50;;;20.38;;
51082;SDS011;37131;42.694;23.350;2024-01-11T10:03:20;33.63;;;15.38;;
51082;SDS011;37131;42.694;23.350;2024-01-11T10:05:48;29.70;;;13.40;;
51082;SDS011;37131;42.694;23.350;2024-01-11T10:08:17;30.80;;;16.08;;
51082;SDS011;37131;42.694;23.350;2024-01-11T10:10:46;28.70;;;14.70;;
51082;SDS011;37131;42.694;23.350;2024-01-11T10:13:12;28.38;;;13.20;;
51082;SDS011;37131;42.694;23.350;2024-01-11T10:15:37;30.60;;;14.38;;
51082;SDS011;37131;42.694;23.350;2024-01-11T10:18:03;38.05;;;15.85;;
51082;SDS011;37131;42.694;23.350;2024-01-11T10:20:29;25.92;;;12.55;;
51082;SDS011;37131;42.694;23.350;2024-01-11T10:22:56;32.00;;;14.75;;
51082;SDS011;37131;42.694;23.350;2024-01-11T10:25:22;29.70;;;14.60;;
51082;SDS011;37131;42.694;23.350;2024-01-11T10:27:48;27.50;;;12.75;;
51082;SDS011;37131;42.694;23.350;2024-01-11T10:30:14;28.48;;;12.93;;
51082;SDS011;37131;42.694;23.350;2024-01-11T10:32:45;22.83;;;10.80;;
51082;SDS011;37131;42.694;23.350;2024-01-11T10:35:12;23.02;;;12.77;;
51082;SDS011;37131;42.694;23.350;2024-01-11T10:37:38;12.18;;;8.48;;
51082;SDS011;37131;42.694;23.350;2024-01-11T10:40:05;19.92;;;10.25;;
51082;SDS011;37131;42.694;23.350;2024-01-11T10:42:44;36.75;;;16.95;;
51082;SDS011;37131;42.694;23.350;2024-01-11T10:45:16;21.52;;;9.07;;
51082;SDS011;37131;42.694;23.350;2024-01-11T10:47:51;38.38;;;18.10;;
51082;SDS011;37131;42.694;23.350;2024-01-11T10:50:19;35.08;;;15.88;;
51082;SDS011;37131;42.694;23.350;2024-01-11T10:52:51;30.92;;;15.32;;
51082;SDS011;37131;42.694;23.350;2024-01-11T10:57:53;20.50;;;8.18;;
51082;SDS011;37131;42.694;23.350;2024-01-11T11:00:20;11.77;;;8.88;;
51082;SDS011;37131;42.694;23.350;2024-01-11T11:02:47;37.90;;;15.75;;
51082;SDS011;37131;42.694;23.350;2024-01-11T11:05:15;34.65;;;16.73;;
51082;SDS011;37131;42.694;23.350;2024-01-11T11:07:47;54.20;;;21.90;;
51082;SDS011;37131;42.694;23.350;2024-01-11T11:10:14;15.45;;;7.93;;
51082;SDS011;37131;42.694;23.350;2024-01-11T11:12:42;33.88;;;16.63;;
51082;SDS011;37131;42.694;23.350;2024-01-11T11:15:10;48.50;;;18.90;;
51082;SDS011;37131;42.694;23.350;2024-01-11T11:17:37;34.22;;;16.33;;
51082;SDS011;37131;42.694;23.350;2024-01-11T11:20:05;39.30;;;17.88;;
51082;SDS011;37131;42.694;23.350;2024-01-11T11:22:36;38.58;;;19.08;;
51082;SDS011;37131;42.694;23.350;2024-01-11T11:25:08;30.95;;;17.25;;
51082;SDS011;37131;42.694;23.350;2024-01-11T11:27:36;36.65;;;15.05;;
51082;SDS011;37131;42.694;23.350;2024-01-11T11:30:02;30.30;;;17.02;;
51082;SDS011;37131;42.694;23.350;2024-01-11T11:32:35;29.20;;;12.65;;
51082;SDS011;37131;42.694;23.350;2024-01-11T11:35:03;33.45;;;15.32;;
51082;SDS011;37131;42.694;23.350;2024-01-11T11:37:29;35.72;;;15.93;;
51082;SDS011;37131;42.694;23.350;2024-01-11T11:42:22;29.83;;;12.48;;
51082;SDS011;37131;42.694;23.350;2024-01-11T11:44:50;23.27;;;11.98;;
51082;SDS011;37131;42.694;23.350;2024-01-11T11:47:19;35.17;;;16.13;;
51082;SDS011;37131;42.694;23.350;2024-01-11T11:55:00;20.52;;;8.90;;
51082;SDS011;37131;42.694;23.350;2024-01-11T11:57:27;19.33;;;9.80;;
51082;SDS011;37131;42.694;23.350;2024-01-11T11:59:54;17.17;;;7.15;;
51082;SDS011;37131;42.694;23.350;2024-01-11T12:02:22;14.27;;;8.63;;
51082;SDS011;37131;42.694;23.350;2024-01-11T12:04:48;15.00;;;8.02;;
51082;SDS011;37131;42.694;23.350;2024-01-11T12:07:14;14.45;;;7.13;;
51082;SDS011;37131;42.694;23.350;2024-01-11T12:09:40;15.73;;;7.75;;
51082;SDS011;37131;42.694;23.350;2024-01-11T12:12:06;11.93;;;7.05;;
51082;SDS011;37131;42.694;23.350;2024-01-11T12:14:33;10.90;;;7.45;;
51082;SDS011;37131;42.694;23.350;2024-01-11T12:16:59;7.38;;;4.30;;
51082;SDS011;37131;42.694;23.350;2024-01-11T12:19:25;10.13;;;5.80;;
51082;SDS011;37131;42.694;23.350;2024-01-11T12:21:54;13.05;;;6.43;;
51082;SDS011;37131;42.694;23.350;2024-01-11T12:24:19;13.07;;;6.95;;
51082;SDS011;37131;42.694;23.350;2024-01-11T12:26:47;17.10;;;7.00;;
51082;SDS011;37131;42.694;23.350;2024-01-11T12:29:19;12.80;;;6.65;;
51082;SDS011;37131;42.694;23.350;2024-01-11T12:31:45;9.52;;;4.45;;
51082;SDS011;37131;42.694;23.350;2024-01-11T12:34:13;12.77;;;7.25;;
51082;SDS011;37131;42.694;23.350;2024-01-11T12:36:40;9.52;;;4.82;;
51082;SDS011;37131;42.694;23.350;2024-01-11T12:39:06;11.35;;;6.90;;
51082;SDS011;37131;42.694;23.350;2024-01-11T12:41:35;12.02;;;6.45;;
51082;SDS011;37131;42.694;23.350;2024-01-11T12:44:02;9.32;;;5.28;;
51082;SDS011;37131;42.694;23.350;2024-01-11T12:46:28;11.88;;;3.75;;
51082;SDS011;37131;42.694;23.350;2024-01-11T12:48:53;6.65;;;3.50;;
51082;SDS011;37131;42.694;23.350;2024-01-11T12:51:19;10.25;;;4.03;;
51082;SDS011;37131;42.694;23.350;2024-01-11T12:53:45;10.50;;;4.55;;
51082;SDS011;37131;42.694;23.350;2024-01-11T12:56:12;2.78;;;2.55;;
51082;SDS011;37131;42.694;23.350;2024-01-11T12:58:40;5.95;;;3.83;;
51082;SDS011;37131;42.694;23.350;2024-01-11T13:01:06;7.05;;;3.47;;
51082;SDS011;37131;42.694;23.350;2024-01-11T13:03:33;4.63;;;3.10;;
51082;SDS011;37131;42.694;23.350;2024-01-11T13:05:59;8.00;;;3.95;;
51082;SDS011;37131;42.694;23.350;2024-01-11T13:08:24;7.35;;;4.70;;
51082;SDS011;37131;42.694;23.350;2024-01-11T13:10:52;7.85;;;4.05;;
51082;SDS011;37131;42.694;23.350;2024-01-11T13:13:17;3.03;;;2.20;;
51082;SDS011;37131;42.694;23.350;2024-01-11T13:15:42;4.70;;;3.25;;
51082;SDS011;37131;42.694;23.350;2024-01-11T13:18:08;5.38;;;2.58;;
51082;SDS011;37131;42.694;23.350;2024-01-11T13:20:33;4.00;;;2.45;;
51082;SDS011;37131;42.694;23.350;2024-01-11T13:23:15;7.60;;;4.13;;
51082;SDS011;37131;42.694;23.350;2024-01-11T13:25:43;4.40;;;2.67;;
51082;SDS011;37131;42.694;23.350;2024-01-11T13:28:09;10.18;;;3.20;;
51082;SDS011;37131;42.694;23.350;2024-01-11T13:30:38;4.32;;;2.47;;
51082;SDS011;37131;42.694;23.350;2024-01-11T13:33:05;6.65;;;3.10;;
51082;SDS011;37131;42.694;23.350;2024-01-11T13:35:30;4.93;;;2.47;;
51082;SDS011;37131;42.694;23.350;2024-01-11T13:37:56;5.85;;;2.00;;
51082;SDS011;37131;42.694;23.350;2024-01-11T13:40:22;4.55;;;2.42;;
51082;SDS011;37131;42.694;23.350;2024-01-11T13:42:47;4.72;;;1.92;;
51082;SDS011;37131;42.694;23.350;2024-01-11T13:45:13;9.57;;;3.53;;
51082;SDS011;37131;42.694;23.350;2024-01-11T13:47:38;4.82;;;1.90;;
51082;SDS011;37131;42.694;23.350;2024-01-11T13:50:04;8.70;;;2.63;;
51082;SDS011;37131;42.694;23.350;2024-01-11T13:52:29;4.97;;;2.08;;
51082;SDS011;37131;42.694;23.350;2024-01-11T13:57:22;1.67;;;0.93;;
51082;SDS011;37131;42.694;23.350;2024-01-11T13:59:48;7.45;;;2.03;;
51082;SDS011;37131;42.694;23.350;2024-01-11T14:02:14;5.05;;;1.95;;
51082;SDS011;37131;42.694;23.350;2024-01-11T14:04:39;4.25;;;1.88;;
51082;SDS011;37131;42.694;23.350;2024-01-11T14:07:05;8.55;;;3.78;;
51082;SDS011;37131;42.694;23.350;2024-01-11T14:09:31;9.38;;;3.65;;
51082;SDS011;37131;42.694;23.350;2024-01-11T14:11:56;7.72;;;2.90;;
51082;SDS011;37131;42.694;23.350;2024-01-11T14:14:22;7.10;;;3.63;;
51082;SDS011;37131;42.694;23.350;2024-01-11T14:16:47;11.00;;;6.25;;
51082;SDS011;37131;42.694;23.350;2024-01-11T14:19:13;8.82;;;3.60;;
51082;SDS011;37131;42.694;23.350;2024-01-11T14:21:39;8.23;;;4.05;;
51082;SDS011;37131;42.694;23.350;2024-01-11T14:24:04;8.40;;;2.60;;
51082;SDS011;37131;42.694;23.350;2024-01-11T14:26:33;6.85;;;3.20;;
51082;SDS011;37131;42.694;23.350;2024-01-11T14:28:58;5.63;;;3.45;;
51082;SDS011;37131;42.694;23.350;2024-01-11T14:31:24;8.05;;;3.25;;